createdAt,value
2022-08-25T00:00:50.139Z,10.3
2022-08-25T00:02:56.837Z,10.4
2022-08-25T00:04:54.086Z,10.5
2022-08-25T00:06:50.333Z,10.5
2022-08-25T00:08:50.242Z,10.5
2022-08-25T00:11:03.353Z,10.5
2022-08-25T00:12:50.128Z,10.9
2022-08-25T00:14:50.053Z,10.6
2022-08-25T00:16:50.239Z,10.6
2022-08-25T00:18:50.168Z,11.2
2022-08-25T00:20:50.029Z,11.2
2022-08-25T00:22:49.961Z,10.8
2022-08-25T00:24:50.071Z,10.7
2022-08-25T00:26:50.336Z,10.7
2022-08-25T00:28:54.278Z,10.7
2022-08-25T00:30:50.549Z,10.7
2022-08-25T00:32:57.603Z,10.7
2022-08-25T00:34:50.402Z,10.9
2022-08-25T00:36:49.925Z,10.6
2022-08-25T00:38:49.776Z,10.9
2022-08-25T00:40:50.616Z,10.9
2022-08-25T00:42:49.643Z,10.9
2022-08-25T00:44:50.522Z,10.9
2022-08-25T00:46:49.889Z,11.5
2022-08-25T00:48:49.713Z,11.5
2022-08-25T00:50:49.746Z,11.0
2022-08-25T00:52:50.313Z,11.2
2022-08-25T00:54:50.333Z,10.5
2022-08-25T00:56:50.347Z,10.5
2022-08-25T00:58:50.230Z,10.9
2022-08-25T01:00:50.089Z,11.2
2022-08-25T01:02:50.119Z,11.0
2022-08-25T01:04:49.890Z,11.4
2022-08-25T01:06:50.088Z,11.4
2022-08-25T01:08:49.949Z,11.3
2022-08-25T01:10:50.661Z,11.3
2022-08-25T01:12:49.813Z,10.9
2022-08-25T01:14:49.964Z,10.9
2022-08-25T01:16:54.159Z,11.4
2022-08-25T01:18:50.253Z,10.9
2022-08-25T01:20:50.423Z,11.0
2022-08-25T01:22:55.532Z,11.7
2022-08-25T01:24:50.378Z,11.7
2022-08-25T01:26:50.478Z,11.3
2022-08-25T01:28:50.416Z,11.2
2022-08-25T01:30:50.612Z,11.7
2022-08-25T01:32:50.593Z,11.8
2022-08-25T01:34:52.068Z,12.1
2022-08-25T01:36:50.362Z,12.1
2022-08-25T01:38:50.374Z,11.5
2022-08-25T01:40:50.287Z,12.3
2022-08-25T01:42:50.243Z,11.9
2022-08-25T01:44:50.233Z,12.3
2022-08-25T01:46:50.506Z,12.3
2022-08-25T01:48:50.321Z,11.9
2022-08-25T01:50:50.223Z,12.0
2022-08-25T01:52:50.106Z,12.0
2022-08-25T01:54:50.009Z,11.7
2022-08-25T01:56:50.232Z,11.7
2022-08-25T01:58:50.143Z,11.4
2022-08-25T02:00:49.927Z,11.9
2022-08-25T02:02:55.442Z,12.4
2022-08-25T02:04:50.885Z,12.7
2022-08-25T02:06:50.088Z,12.7
2022-08-25T02:08:49.792Z,12.1
2022-08-25T02:10:49.829Z,11.8
2022-08-25T02:12:50.417Z,11.8
2022-08-25T02:14:50.130Z,11.8
2022-08-25T02:16:50.614Z,12.0
2022-08-25T02:18:50.168Z,11.5
2022-08-25T02:20:50.172Z,12.4
2022-08-25T02:22:57.264Z,12.5
2022-08-25T02:24:50.063Z,12.5
2022-08-25T02:26:49.775Z,12.3
2022-08-25T02:28:49.656Z,12.3
2022-08-25T02:30:50.779Z,12.6
2022-08-25T02:32:49.978Z,12.7
2022-08-25T02:34:50.640Z,12.7
2022-08-25T02:36:49.974Z,13.1
2022-08-25T02:38:49.915Z,12.9
2022-08-25T02:40:49.932Z,12.9
2022-08-25T02:42:49.900Z,12.3
2022-08-25T02:44:49.770Z,12.3
2022-08-25T02:46:49.961Z,12.7
2022-08-25T02:48:50.027Z,12.5
2022-08-25T02:50:50.109Z,12.6
2022-08-25T02:52:50.143Z,12.6
2022-08-25T02:54:50.084Z,12.8
2022-08-25T02:56:50.318Z,13.4
2022-08-25T02:58:50.385Z,13.1
2022-08-25T03:00:50.852Z,13.3
2022-08-25T03:02:50.503Z,13.3
2022-08-25T03:04:50.025Z,13.2
2022-08-25T03:06:50.445Z,13.6
2022-08-25T03:08:50.336Z,13.3
2022-08-25T03:10:52.191Z,13.6
2022-08-25T03:12:50.059Z,13.6
2022-08-25T03:14:50.344Z,13.3
2022-08-25T03:16:50.078Z,13.1
2022-08-25T03:18:50.822Z,13.3
2022-08-25T03:20:49.760Z,13.3
2022-08-25T03:22:50.667Z,13.5
2022-08-25T03:24:50.501Z,13.0
2022-08-25T03:26:49.806Z,12.4
2022-08-25T03:28:50.338Z,13.1
2022-08-25T03:30:56.259Z,13.1
2022-08-25T03:32:50.289Z,13.1
2022-08-25T03:34:49.862Z,12.8
2022-08-25T03:36:49.915Z,12.4
2022-08-25T03:38:50.712Z,12.4
2022-08-25T03:40:49.728Z,13.6
2022-08-25T03:42:50.614Z,13.6
2022-08-25T03:44:50.599Z,13.6
2022-08-25T03:46:49.722Z,12.7
2022-08-25T03:48:49.870Z,13.3
2022-08-25T03:50:52.040Z,13.3
2022-08-25T03:52:50.303Z,12.6
2022-08-25T03:54:50.209Z,13.1
2022-08-25T03:56:51.599Z,12.9
2022-08-25T03:58:50.496Z,12.9
2022-08-25T04:00:50.501Z,12.9
2022-08-25T04:02:50.722Z,12.5
2022-08-25T04:04:50.886Z,12.8
2022-08-25T04:06:50.395Z,12.7
2022-08-25T04:08:50.376Z,12.7
2022-08-25T04:10:50.156Z,13.0
2022-08-25T04:12:50.299Z,12.7
2022-08-25T04:14:50.348Z,12.8
2022-08-25T04:16:49.975Z,12.8
2022-08-25T04:18:49.982Z,12.8
2022-08-25T04:20:49.982Z,12.3
2022-08-25T04:22:49.968Z,13.3
2022-08-25T04:24:49.801Z,13.2
2022-08-25T04:26:49.871Z,13.2
2022-08-25T04:28:49.969Z,13.0
2022-08-25T04:30:52.367Z,13.0
2022-08-25T04:32:50.559Z,13.0
2022-08-25T04:34:49.767Z,13.8
2022-08-25T04:36:52.851Z,13.5
2022-08-25T04:38:50.045Z,13.5
2022-08-25T04:40:50.087Z,13.1
2022-08-25T04:42:49.986Z,13.1
2022-08-25T04:44:49.970Z,13.1
2022-08-25T04:46:50.163Z,12.5
2022-08-25T04:48:50.223Z,12.5
2022-08-25T04:50:50.349Z,12.8
2022-08-25T04:52:50.416Z,12.9
2022-08-25T04:54:50.508Z,12.3
2022-08-25T04:56:50.023Z,12.3
2022-08-25T04:58:49.885Z,13.3
2022-08-25T05:00:49.953Z,12.4
2022-08-25T05:02:50.284Z,12.9
2022-08-25T05:04:50.713Z,12.7
2022-08-25T05:06:50.088Z,12.7
2022-08-25T05:08:50.043Z,12.4
2022-08-25T05:10:49.789Z,12.9
2022-08-25T05:12:49.720Z,12.0
2022-08-25T05:14:50.588Z,12.0
2022-08-25T05:16:50.016Z,11.8
2022-08-25T05:18:50.180Z,11.8
2022-08-25T05:20:50.199Z,11.5
2022-08-25T05:22:50.071Z,11.3
2022-08-25T05:24:49.992Z,11.3
2022-08-25T05:26:50.417Z,11.1
2022-08-25T05:28:50.234Z,11.1
2022-08-25T05:30:50.124Z,11.0
2022-08-25T05:32:50.062Z,10.9
2022-08-25T05:34:50.509Z,10.9
2022-08-25T05:36:49.770Z,10.9
2022-08-25T05:38:49.831Z,10.9
2022-08-25T05:40:50.662Z,11.1
2022-08-25T05:42:49.687Z,11.1
2022-08-25T05:44:50.658Z,11.4
2022-08-25T05:46:49.887Z,10.9
2022-08-25T05:48:49.836Z,11.4
2022-08-25T05:50:49.885Z,11.3
2022-08-25T05:52:49.801Z,11.3
2022-08-25T05:54:49.730Z,11.3
2022-08-25T05:56:49.884Z,11.3
2022-08-25T05:58:49.921Z,10.8
2022-08-25T06:00:50.077Z,11.0
2022-08-25T06:02:50.280Z,11.0
2022-08-25T06:04:50.521Z,10.5
2022-08-25T06:06:50.194Z,10.5
2022-08-25T06:08:50.122Z,10.5
2022-08-25T06:10:50.068Z,11.2
2022-08-25T06:12:49.903Z,12.2
2022-08-25T06:14:49.761Z,12.1
2022-08-25T06:16:49.841Z,12.1
2022-08-25T06:18:49.713Z,11.6
2022-08-25T06:20:50.528Z,12.4
2022-08-25T06:22:50.368Z,12.7
2022-08-25T06:24:50.241Z,12.7
2022-08-25T06:26:50.434Z,12.1
2022-08-25T06:28:50.378Z,11.6
2022-08-25T06:30:50.353Z,12.9
2022-08-25T06:32:50.477Z,12.4
2022-08-25T06:34:49.923Z,12.4
2022-08-25T06:36:50.181Z,11.9
2022-08-25T06:38:50.270Z,12.1
2022-08-25T06:40:50.148Z,11.8
2022-08-25T06:42:50.169Z,12.3
2022-08-25T06:44:50.093Z,12.3
2022-08-25T06:46:50.347Z,12.8
2022-08-25T06:48:50.432Z,12.1
2022-08-25T06:50:50.445Z,12.3
2022-08-25T06:52:50.258Z,12.3
2022-08-25T06:54:50.218Z,11.7
2022-08-25T06:56:50.517Z,12.1
2022-08-25T06:58:50.344Z,12.7
2022-08-25T07:00:50.504Z,11.7
2022-08-25T07:02:53.635Z,11.7
2022-08-25T07:04:49.934Z,12.3
2022-08-25T07:06:50.045Z,12.0
2022-08-25T07:08:49.900Z,12.0
2022-08-25T07:10:49.783Z,12.0
2022-08-25T07:12:49.803Z,12.4
2022-08-25T07:15:10.263Z,12.5
2022-08-25T07:16:50.617Z,12.3
2022-08-25T07:18:50.567Z,11.7
2022-08-25T07:20:49.879Z,11.7
2022-08-25T07:22:50.129Z,11.8
2022-08-25T07:24:49.887Z,11.8
2022-08-25T07:26:50.205Z,11.9
2022-08-25T07:28:50.421Z,11.9
2022-08-25T07:30:52.350Z,10.9
2022-08-25T07:32:55.520Z,10.9
2022-08-25T07:34:52.775Z,11.4
2022-08-25T07:36:50.432Z,11.6
2022-08-25T07:38:50.555Z,11.6
2022-08-25T07:40:53.762Z,11.7
2022-08-25T07:42:50.110Z,11.7
2022-08-25T07:44:50.239Z,10.6
2022-08-25T07:46:50.713Z,11.3
2022-08-25T07:48:53.625Z,11.3
2022-08-25T07:50:51.447Z,10.4
2022-08-25T07:52:59.441Z,10.4
2022-08-25T07:54:50.683Z,10.9
2022-08-25T07:56:49.825Z,11.1
2022-08-25T07:58:49.829Z,11.1
2022-08-25T08:00:50.899Z,10.4
2022-08-25T08:02:50.038Z,10.4
2022-08-25T08:04:50.297Z,10.4
2022-08-25T08:06:50.653Z,10.2
2022-08-25T08:08:49.907Z,9.8
2022-08-25T08:11:04.464Z,9.8
2022-08-25T08:12:51.497Z,10.0
2022-08-25T08:14:50.533Z,9.4
2022-08-25T08:16:49.997Z,9.6
2022-08-25T08:18:50.018Z,9.3
2022-08-25T08:20:50.025Z,9.3
2022-08-25T08:22:49.933Z,9.0
2022-08-25T08:24:56.540Z,8.9
2022-08-25T08:26:59.357Z,9.3
2022-08-25T08:28:52.345Z,9.2
2022-08-25T08:30:53.926Z,9.2
2022-08-25T08:33:09.515Z,9.2
2022-08-25T08:34:51.509Z,9.0
2022-08-25T08:36:49.910Z,9.3
2022-08-25T08:38:50.127Z,9.3
2022-08-25T08:40:53.792Z,9.0
2022-08-25T08:42:51.371Z,8.9
2022-08-25T08:44:50.002Z,9.5
2022-08-25T08:46:50.864Z,8.8
2022-08-25T08:48:50.543Z,8.8
2022-08-25T08:50:51.226Z,9.6
2022-08-25T08:52:50.550Z,9.6
2022-08-25T08:54:50.644Z,9.0
2022-08-25T08:56:51.083Z,9.0
2022-08-25T08:58:50.404Z,8.9
2022-08-25T09:00:52.661Z,8.9
2022-08-25T09:02:52.272Z,8.6
2022-08-25T09:04:49.874Z,8.0
2022-08-25T09:06:49.682Z,8.0
2022-08-25T09:08:50.487Z,8.0
2022-08-25T09:10:54.345Z,8.4
2022-08-25T09:12:50.916Z,8.5
2022-08-25T09:14:54.350Z,8.0
2022-08-25T09:16:50.672Z,9.0
2022-08-25T09:18:52.524Z,9.0
2022-08-25T09:20:49.725Z,8.8
2022-08-25T09:22:53.885Z,8.5
2022-08-25T09:24:51.248Z,8.5
2022-08-25T09:26:50.506Z,9.0
2022-08-25T09:28:51.490Z,9.0
2022-08-25T09:30:50.508Z,8.4
2022-08-25T09:32:52.849Z,8.3
2022-08-25T09:34:49.857Z,7.9
2022-08-25T09:36:49.972Z,7.9
2022-08-25T09:38:50.501Z,8.2
2022-08-25T09:40:50.975Z,8.2
2022-08-25T09:42:50.097Z,8.7
2022-08-25T09:44:50.367Z,8.1
2022-08-25T09:46:51.053Z,8.1
2022-08-25T09:48:57.669Z,7.7
2022-08-25T09:50:49.915Z,7.9
2022-08-25T09:52:53.731Z,8.1
2022-08-25T09:54:49.711Z,8.1
2022-08-25T09:56:49.889Z,7.2
2022-08-25T09:58:49.821Z,7.2
2022-08-25T10:00:50.216Z,7.2
2022-08-25T10:02:50.171Z,7.2
2022-08-25T10:06:50.202Z,7.4
2022-08-25T10:08:50.590Z,7.4
2022-08-25T10:10:49.787Z,6.8
2022-08-25T10:12:59.904Z,6.6
2022-08-25T10:14:54.634Z,6.6
2022-08-25T10:16:50.333Z,7.5
2022-08-25T10:18:50.048Z,7.0
2022-08-25T10:20:50.245Z,7.4
2022-08-25T10:22:50.782Z,7.4
2022-08-25T10:24:49.895Z,7.2
2022-08-25T10:26:50.413Z,7.6
2022-08-25T10:28:50.600Z,8.0
2022-08-25T10:30:50.724Z,8.0
2022-08-25T10:32:49.943Z,8.5
2022-08-25T10:34:52.681Z,7.4
2022-08-25T10:36:50.071Z,8.0
2022-08-25T10:38:50.462Z,8.0
2022-08-25T10:40:50.495Z,8.0
2022-08-25T10:42:50.496Z,7.0
2022-08-25T10:44:50.374Z,7.2
2022-08-25T10:46:50.417Z,7.0
2022-08-25T10:48:51.682Z,6.9
2022-08-25T10:50:50.578Z,7.3
2022-08-25T10:52:50.233Z,7.2
2022-08-25T10:54:50.706Z,7.2
2022-08-25T10:56:53.290Z,7.8
2022-08-25T10:58:49.673Z,7.5
2022-08-25T11:00:50.381Z,8.8
2022-08-25T11:02:49.821Z,8.8
2022-08-25T11:04:50.598Z,8.2
2022-08-25T11:06:54.876Z,7.6
2022-08-25T11:08:49.898Z,7.6
2022-08-25T11:10:50.605Z,7.6
2022-08-25T11:12:51.010Z,7.6
2022-08-25T11:14:49.960Z,7.4
2022-08-25T11:16:50.021Z,7.3
2022-08-25T11:18:51.009Z,7.3
2022-08-25T11:20:49.759Z,7.3
2022-08-25T11:22:49.682Z,7.3
2022-08-25T11:24:49.878Z,7.2
2022-08-25T11:26:49.951Z,7.4
2022-08-25T11:28:49.938Z,7.7
2022-08-25T11:30:49.924Z,7.7
2022-08-25T11:32:51.019Z,7.9
2022-08-25T11:34:50.466Z,7.2
2022-08-25T11:36:51.026Z,7.0
2022-08-25T11:38:49.740Z,8.0
2022-08-25T11:40:50.545Z,7.1
2022-08-25T11:42:50.505Z,7.1
2022-08-25T11:44:54.926Z,7.0
2022-08-25T11:46:50.341Z,7.6
2022-08-25T11:48:50.868Z,7.2
2022-08-25T11:50:49.838Z,7.2
2022-08-25T11:52:51.268Z,7.1
2022-08-25T11:54:50.201Z,7.2
2022-08-25T11:56:50.562Z,7.5
2022-08-25T11:58:50.510Z,7.5
2022-08-25T12:00:50.365Z,7.4
2022-08-25T12:02:49.697Z,6.7
2022-08-25T12:04:53.194Z,7.1
2022-08-25T12:06:53.042Z,7.5
2022-08-25T12:08:50.158Z,7.6
2022-08-25T12:10:50.755Z,7.6
2022-08-25T12:12:50.431Z,7.3
2022-08-25T12:14:50.259Z,7.3
2022-08-25T12:16:51.714Z,7.3
2022-08-25T12:18:50.676Z,7.3
2022-08-25T12:20:49.739Z,6.9
2022-08-25T12:22:50.345Z,7.1
2022-08-25T12:24:50.030Z,6.4
2022-08-25T12:26:50.481Z,6.4
2022-08-25T12:28:50.948Z,6.0
2022-08-25T12:30:50.886Z,5.9
2022-08-25T12:32:50.277Z,6.0
2022-08-25T12:34:50.607Z,5.6
2022-08-25T12:36:49.989Z,5.7
2022-08-25T12:38:52.561Z,5.7
2022-08-25T12:40:50.003Z,5.3
2022-08-25T12:42:50.601Z,5.0
2022-08-25T12:44:50.597Z,5.0
2022-08-25T12:46:50.297Z,5.1
2022-08-25T12:48:50.461Z,5.1
2022-08-25T12:50:50.437Z,5.1
2022-08-25T12:52:49.723Z,4.4
2022-08-25T12:54:49.838Z,5.0
2022-08-25T12:56:50.128Z,5.1
2022-08-25T12:59:00.532Z,5.1
2022-08-25T13:00:53.952Z,6.0
2022-08-25T13:02:52.568Z,5.9
2022-08-25T13:04:50.116Z,5.9
2022-08-25T13:06:50.390Z,5.5
2022-08-25T13:08:51.836Z,5.5
2022-08-25T13:10:50.401Z,6.9
2022-08-25T13:12:50.099Z,6.3
2022-08-25T13:14:50.349Z,6.8
2022-08-25T13:16:50.627Z,6.6
2022-08-25T13:18:51.862Z,6.6
2022-08-25T13:20:50.527Z,6.3
2022-08-25T13:22:57.495Z,6.3
2022-08-25T13:24:51.048Z,7.9
2022-08-25T13:26:49.992Z,6.0
2022-08-25T13:28:50.651Z,6.0
2022-08-25T13:30:50.602Z,6.4
2022-08-25T13:32:51.166Z,5.5
2022-08-25T13:36:58.768Z,5.7
2022-08-25T13:38:49.999Z,5.3
2022-08-25T13:40:50.120Z,5.5
2022-08-25T13:42:56.314Z,5.5
2022-08-25T13:44:53.957Z,7.1
2022-08-25T13:46:50.479Z,7.1
2022-08-25T13:48:50.272Z,5.4
2022-08-25T13:50:53.112Z,5.3
2022-08-25T13:52:50.549Z,5.4
2022-08-25T13:54:50.507Z,5.8
2022-08-25T13:56:52.649Z,5.8
2022-08-25T13:58:49.714Z,8.6
2022-08-25T14:00:53.843Z,5.1
2022-08-25T14:02:50.478Z,5.3
2022-08-25T14:04:52.722Z,5.4
2022-08-25T14:06:50.165Z,5.4
2022-08-25T14:08:54.954Z,8.4
2022-08-25T14:10:50.596Z,6.2
2022-08-25T14:12:50.653Z,5.9
2022-08-25T14:14:53.770Z,5.4
2022-08-25T14:16:54.404Z,5.4
2022-08-25T14:18:49.878Z,6.6
2022-08-25T14:20:50.435Z,5.1
2022-08-25T14:22:50.731Z,4.7
2022-08-25T14:24:50.406Z,4.7
2022-08-25T14:26:54.932Z,5.2
2022-08-25T14:28:50.009Z,4.8
2022-08-25T14:30:52.007Z,6.3
2022-08-25T14:32:51.216Z,6.3
2022-08-25T14:34:50.208Z,5.1
2022-08-25T14:36:50.715Z,5.1
2022-08-25T14:38:55.264Z,4.8
2022-08-25T14:40:50.653Z,4.9
2022-08-25T14:42:50.006Z,4.6
2022-08-25T14:44:49.805Z,4.6
2022-08-25T14:46:50.007Z,4.3
2022-08-25T14:48:49.884Z,4.4
2022-08-25T14:50:50.874Z,5.0
2022-08-25T14:52:52.398Z,5.0
2022-08-25T14:54:49.772Z,4.7
2022-08-25T14:56:50.004Z,4.9
2022-08-25T14:58:54.454Z,4.6
2022-08-25T15:00:51.032Z,4.4
2022-08-25T15:02:52.983Z,4.4
2022-08-25T15:04:52.102Z,5.9
2022-08-25T15:06:50.315Z,4.9
2022-08-25T15:08:49.672Z,4.9
2022-08-25T15:10:50.623Z,4.6
2022-08-25T15:12:54.803Z,4.7
2022-08-25T15:14:49.796Z,4.6
2022-08-25T15:16:50.326Z,4.2
2022-08-25T15:18:49.728Z,4.2
2022-08-25T15:20:50.338Z,4.6
2022-08-25T15:22:50.283Z,4.6
2022-08-25T15:24:50.346Z,4.5
2022-08-25T15:28:50.310Z,4.5
2022-08-25T15:30:50.634Z,4.5
2022-08-25T15:32:50.837Z,4.6
2022-08-25T15:34:50.274Z,4.7
2022-08-25T15:36:50.585Z,5.1
2022-08-25T15:38:50.517Z,5.1
2022-08-25T15:40:50.545Z,4.8
2022-08-25T15:42:50.381Z,4.8
2022-08-25T15:44:53.846Z,5.0
2022-08-25T15:46:50.616Z,4.7
2022-08-25T15:48:49.761Z,4.7
2022-08-25T15:50:49.831Z,4.7
2022-08-25T15:52:49.862Z,5.5
2022-08-25T15:54:50.214Z,5.2
2022-08-25T15:56:51.783Z,5.2
2022-08-25T15:58:50.320Z,4.6
2022-08-25T16:00:56.786Z,4.6
2022-08-25T16:02:50.097Z,4.9
2022-08-25T16:04:50.546Z,5.4
2022-08-25T16:06:50.726Z,5.1
2022-08-25T16:08:50.112Z,4.9
2022-08-25T16:10:49.959Z,4.9
2022-08-25T16:12:50.065Z,4.5
2022-08-25T16:14:52.312Z,5.0
2022-08-25T16:16:51.693Z,5.0
2022-08-25T16:18:50.593Z,4.6
2022-08-25T16:20:50.618Z,4.6
2022-08-25T16:22:50.496Z,4.8
2022-08-25T16:24:49.711Z,5.0
2022-08-25T16:26:50.059Z,5.3
2022-08-25T16:28:50.155Z,5.3
2022-08-25T16:30:53.275Z,5.3
2022-08-25T16:32:50.083Z,5.3
2022-08-25T16:34:50.583Z,5.4
2022-08-25T16:36:52.367Z,5.3
2022-08-25T16:38:50.531Z,5.3
2022-08-25T16:40:50.395Z,5.3
2022-08-25T16:42:50.988Z,5.3
2022-08-25T16:44:54.107Z,5.4
2022-08-25T16:46:51.023Z,5.3
2022-08-25T16:48:50.147Z,4.9
2022-08-25T16:50:49.920Z,4.9
2022-08-25T16:52:50.608Z,5.5
2022-08-25T16:54:51.139Z,5.1
2022-08-25T16:56:55.278Z,5.0
2022-08-25T16:58:52.417Z,5.0
2022-08-25T17:00:50.592Z,5.0
2022-08-25T17:02:50.109Z,5.0
2022-08-25T17:04:52.006Z,5.2
2022-08-25T17:06:52.326Z,5.2
2022-08-25T17:08:50.439Z,5.2
2022-08-25T17:10:50.193Z,4.9
2022-08-25T17:12:50.398Z,4.9
2022-08-25T17:14:50.312Z,4.9
2022-08-25T17:16:50.854Z,4.9
2022-08-25T17:18:50.460Z,5.1
2022-08-25T17:20:51.473Z,5.1
2022-08-25T17:22:50.455Z,5.1
2022-08-25T17:25:01.087Z,5.1
2022-08-25T17:26:50.548Z,5.2
2022-08-25T17:28:50.393Z,5.2
2022-08-25T17:30:50.645Z,5.0
2022-08-25T17:32:51.214Z,5.6
2022-08-25T17:34:50.161Z,5.6
2022-08-25T17:36:50.515Z,5.7
2022-08-25T17:38:50.573Z,5.7
2022-08-25T17:40:50.501Z,5.6
2022-08-25T17:42:51.657Z,5.9
2022-08-25T17:44:50.597Z,5.7
2022-08-25T17:46:51.738Z,5.6
2022-08-25T17:48:50.037Z,5.6
2022-08-25T17:50:50.520Z,5.6
2022-08-25T17:52:50.441Z,6.1
2022-08-25T17:54:52.575Z,6.0
2022-08-25T17:56:49.963Z,6.0
2022-08-25T17:58:49.916Z,5.7
2022-08-25T18:00:49.830Z,6.1
2022-08-25T18:02:49.868Z,5.6
2022-08-25T18:04:50.443Z,5.8
2022-08-25T18:06:50.085Z,5.8
2022-08-25T18:08:56.426Z,5.9
2022-08-25T18:10:50.659Z,6.2
2022-08-25T18:12:50.475Z,5.9
2022-08-25T18:14:50.400Z,5.9
2022-08-25T18:16:53.130Z,6.4
2022-08-25T18:18:51.559Z,6.2
2022-08-25T18:20:49.841Z,6.3
2022-08-25T18:22:50.476Z,6.2
2022-08-25T18:24:50.407Z,7.3
2022-08-25T18:26:49.806Z,7.3
2022-08-25T18:28:49.857Z,9.0
2022-08-25T18:30:49.851Z,7.8
2022-08-25T18:32:49.695Z,7.8
2022-08-25T18:34:50.174Z,7.0
2022-08-25T18:36:51.196Z,7.0
2022-08-25T18:38:58.375Z,6.7
2022-08-25T18:40:50.987Z,6.5
2022-08-25T18:42:52.019Z,6.8
2022-08-25T18:44:50.038Z,6.8
2022-08-25T18:46:50.381Z,6.7
2022-08-25T18:48:53.231Z,6.9
2022-08-25T18:50:52.009Z,7.1
2022-08-25T18:52:55.326Z,7.1
2022-08-25T18:54:53.129Z,7.0
2022-08-25T18:56:50.205Z,8.1
2022-08-25T18:58:51.039Z,8.1
2022-08-25T19:00:50.022Z,7.4
2022-08-25T19:02:50.670Z,7.7
2022-08-25T19:04:50.783Z,7.7
2022-08-25T19:06:51.935Z,8.1
2022-08-25T19:08:50.407Z,7.6
2022-08-25T19:10:49.684Z,8.0
2022-08-25T19:12:50.383Z,7.2
2022-08-25T19:14:50.056Z,7.2
2022-08-25T19:16:50.620Z,7.7
2022-08-25T19:18:52.492Z,7.6
2022-08-25T19:20:52.552Z,7.8
2022-08-25T19:22:50.289Z,7.8
2022-08-25T19:24:50.112Z,7.5
2022-08-25T19:26:54.900Z,7.2
2022-08-25T19:28:49.789Z,7.2
2022-08-25T19:30:50.986Z,7.7
2022-08-25T19:32:50.317Z,7.7
2022-08-25T19:34:51.755Z,8.0
2022-08-25T19:36:50.259Z,7.9
2022-08-25T19:38:51.946Z,7.9
2022-08-25T19:40:49.902Z,7.7
2022-08-25T19:42:53.970Z,7.7
2022-08-25T19:44:49.846Z,7.7
2022-08-25T19:46:50.877Z,8.6
2022-08-25T19:48:50.695Z,8.2
2022-08-25T19:50:56.338Z,8.2
2022-08-25T19:52:50.287Z,8.2
2022-08-25T19:54:51.952Z,8.2
2022-08-25T19:56:55.665Z,8.7
2022-08-25T19:58:50.503Z,8.6
2022-08-25T20:00:52.024Z,8.6
2022-08-25T20:02:50.189Z,8.7
2022-08-25T20:04:50.430Z,8.7
2022-08-25T20:06:50.525Z,8.9
2022-08-25T20:09:00.744Z,8.9
2022-08-25T20:10:49.721Z,8.7
2022-08-25T20:12:49.715Z,8.7
2022-08-25T20:14:50.522Z,8.0
2022-08-25T20:16:51.788Z,8.0
2022-08-25T20:18:50.215Z,8.9
2022-08-25T20:20:50.391Z,8.9
2022-08-25T20:22:50.279Z,8.6
2022-08-25T20:24:55.940Z,8.6
2022-08-25T20:26:49.819Z,8.6
2022-08-25T20:28:50.646Z,8.7
2022-08-25T20:30:50.691Z,8.7
2022-08-25T20:32:49.778Z,8.1
2022-08-25T20:34:50.206Z,8.1
2022-08-25T20:36:50.602Z,8.9
2022-08-25T20:38:50.037Z,8.5
2022-08-25T20:40:49.860Z,8.5
2022-08-25T20:42:49.842Z,8.6
2022-08-25T20:44:49.686Z,8.8
2022-08-25T20:46:51.794Z,9.3
2022-08-25T20:48:50.511Z,8.6
2022-08-25T20:50:58.025Z,8.6
2022-08-25T20:52:49.935Z,9.3
2022-08-25T20:54:51.340Z,8.8
2022-08-25T20:56:50.654Z,8.8
2022-08-25T20:58:49.926Z,9.1
2022-08-25T21:00:49.874Z,9.1
2022-08-25T21:02:49.986Z,8.7
2022-08-25T21:04:50.733Z,8.9
2022-08-25T21:06:49.962Z,8.8
2022-08-25T21:08:49.729Z,9.0
2022-08-25T21:10:50.631Z,9.0
2022-08-25T21:12:53.671Z,9.3
2022-08-25T21:14:50.549Z,9.3
2022-08-25T21:16:49.963Z,10.1
2022-08-25T21:18:50.137Z,10.1
2022-08-25T21:20:50.005Z,9.7
2022-08-25T21:22:50.438Z,9.1
2022-08-25T21:24:50.302Z,9.1
2022-08-25T21:26:50.551Z,9.1
2022-08-25T21:28:50.403Z,9.1
2022-08-25T21:30:50.512Z,9.8
2022-08-25T21:32:54.078Z,10.1
2022-08-25T21:34:50.467Z,9.9
2022-08-25T21:36:49.938Z,9.8
2022-08-25T21:38:49.906Z,9.8
2022-08-25T21:40:51.859Z,9.5
2022-08-25T21:42:49.977Z,9.6
2022-08-25T21:44:49.908Z,9.8
2022-08-25T21:46:54.850Z,9.8
2022-08-25T21:48:50.064Z,10.1
2022-08-25T21:50:50.363Z,9.8
2022-08-25T21:52:54.978Z,9.8
2022-08-25T21:54:49.919Z,9.1
2022-08-25T21:56:50.283Z,9.1
2022-08-25T21:58:50.155Z,9.6
2022-08-25T22:00:49.973Z,9.5
2022-08-25T22:02:50.551Z,9.8
2022-08-25T22:04:50.442Z,9.8
2022-08-25T22:06:49.884Z,9.8
2022-08-25T22:08:49.741Z,9.7
2022-08-25T22:10:50.716Z,10.4
2022-08-25T22:12:50.569Z,10.6
2022-08-25T22:14:50.581Z,10.6
2022-08-25T22:16:50.012Z,10.1
2022-08-25T22:18:50.222Z,9.7
2022-08-25T22:20:50.157Z,10.0
2022-08-25T22:22:50.079Z,9.9
2022-08-25T22:24:50.724Z,9.9
2022-08-25T22:26:49.857Z,9.8
2022-08-25T22:28:50.431Z,9.7
2022-08-25T22:30:50.352Z,10.5
2022-08-25T22:32:49.846Z,10.4
2022-08-25T22:34:50.373Z,10.4
2022-08-25T22:36:50.774Z,10.6
2022-08-25T22:38:51.409Z,11.1
2022-08-25T22:40:50.333Z,10.8
2022-08-25T22:42:50.256Z,10.0
2022-08-25T22:44:50.552Z,10.0
2022-08-25T22:46:49.724Z,10.0
2022-08-25T22:48:51.489Z,10.6
2022-08-25T22:50:50.669Z,10.5
2022-08-25T22:52:51.083Z,10.5
2022-08-25T22:54:50.081Z,10.7
2022-08-25T22:56:50.498Z,10.5
2022-08-25T22:58:53.387Z,10.5
2022-08-25T23:00:51.680Z,11.2
2022-08-25T23:02:50.588Z,10.4
2022-08-25T23:04:50.300Z,10.4
2022-08-25T23:06:50.112Z,10.3
2022-08-25T23:08:50.033Z,10.3
2022-08-25T23:10:50.082Z,10.7
2022-08-25T23:12:50.105Z,10.7
2022-08-25T23:14:50.276Z,10.7
2022-08-25T23:16:50.003Z,11.4
2022-08-25T23:18:50.480Z,11.0
2022-08-25T23:20:50.465Z,11.0
2022-08-25T23:22:53.707Z,10.8
2022-08-25T23:24:50.887Z,11.0
2022-08-25T23:26:51.438Z,11.0
2022-08-25T23:28:50.473Z,11.0
2022-08-25T23:30:59.615Z,10.8
2022-08-25T23:32:50.564Z,10.6
2022-08-25T23:34:50.179Z,10.6
2022-08-25T23:36:50.629Z,10.6
2022-08-25T23:38:51.969Z,10.8
2022-08-25T23:40:50.179Z,11.3
2022-08-25T23:42:50.413Z,11.3
2022-08-25T23:44:50.463Z,11.4
2022-08-25T23:46:49.722Z,11.5
2022-08-25T23:48:49.728Z,11.6
2022-08-25T23:50:54.385Z,11.3
2022-08-25T23:52:50.529Z,11.3
2022-08-25T23:54:50.495Z,11.8
2022-08-25T23:56:52.696Z,11.6
2022-08-25T23:58:50.655Z,11.5
